createdAt,value
2017-11-24T00:04:55.369Z,3.80
2017-11-24T00:09:57.997Z,3.70
2017-11-24T00:15:01.356Z,3.70
2017-11-24T00:20:03.911Z,3.70
2017-11-24T00:25:06.451Z,3.70
2017-11-24T00:30:09.005Z,3.60
2017-11-24T00:35:12.336Z,3.60
2017-11-24T00:40:14.890Z,3.60
2017-11-24T00:45:17.469Z,3.60
2017-11-24T00:50:20.038Z,3.60
2017-11-24T00:55:22.605Z,3.60
2017-11-24T01:00:25.147Z,3.50
2017-11-24T01:05:27.703Z,3.50
2017-11-24T01:10:30.285Z,3.50
2017-11-24T01:15:33.622Z,3.60
2017-11-24T01:20:36.182Z,3.50
2017-11-24T01:25:38.729Z,3.50
2017-11-24T01:30:41.292Z,3.50
2017-11-24T01:35:43.847Z,3.60
2017-11-24T01:40:46.411Z,3.50
2017-11-24T01:45:48.953Z,3.60
2017-11-24T01:50:51.496Z,3.50
2017-11-24T01:55:54.067Z,3.50
2017-11-24T02:00:56.662Z,3.50
2017-11-24T02:05:59.204Z,3.50
2017-11-24T02:11:01.779Z,3.50
2017-11-24T02:16:04.330Z,3.40
2017-11-24T02:21:06.905Z,3.50
2017-11-24T02:26:09.466Z,3.40
2017-11-24T02:31:12.837Z,3.40
2017-11-24T02:36:15.396Z,3.40
2017-11-24T02:41:17.984Z,3.40
2017-11-24T02:46:21.347Z,3.40
2017-11-24T02:51:23.920Z,3.40
2017-11-24T02:56:26.497Z,3.40
2017-11-24T03:01:29.828Z,3.40
2017-11-24T03:06:32.391Z,3.40
2017-11-24T03:11:34.946Z,3.40
2017-11-24T03:16:37.514Z,3.40
2017-11-24T03:21:40.107Z,3.40
2017-11-24T03:26:42.678Z,3.40
2017-11-24T03:31:45.237Z,3.40
2017-11-24T03:36:47.816Z,3.40
2017-11-24T03:41:50.389Z,3.40
2017-11-24T03:46:52.939Z,3.50
2017-11-24T03:51:55.523Z,3.50
2017-11-24T03:56:58.845Z,3.50
2017-11-24T04:02:01.387Z,3.50
2017-11-24T04:07:03.944Z,3.50
2017-11-24T04:12:06.504Z,3.50
2017-11-24T04:17:09.056Z,3.50
2017-11-24T04:22:11.651Z,3.50
2017-11-24T04:27:14.970Z,3.60
2017-11-24T04:32:17.514Z,3.50
2017-11-24T04:37:20.078Z,3.60
2017-11-24T04:42:22.696Z,3.60
2017-11-24T04:47:25.270Z,3.60
2017-11-24T04:52:27.833Z,3.60
2017-11-24T04:57:30.393Z,3.60
2017-11-24T05:02:32.949Z,3.60
2017-11-24T05:07:35.520Z,3.60
2017-11-24T05:12:38.110Z,3.60
2017-11-24T05:17:40.676Z,3.60
2017-11-24T05:22:44.394Z,3.60
2017-11-24T05:27:47.002Z,3.60
2017-11-24T05:32:49.573Z,3.60
2017-11-24T05:37:52.941Z,3.70
2017-11-24T05:42:55.913Z,3.70
2017-11-24T05:47:58.485Z,3.70
2017-11-24T05:53:01.105Z,3.70
2017-11-24T05:58:04.445Z,3.70
2017-11-24T06:03:06.977Z,3.70
2017-11-24T06:08:09.556Z,3.80
2017-11-24T06:13:12.136Z,3.80
2017-11-24T06:18:14.725Z,3.80
2017-11-24T06:23:17.290Z,3.80
2017-11-24T06:28:19.852Z,3.80
2017-11-24T06:33:22.464Z,3.90
2017-11-24T06:38:25.023Z,3.90
2017-11-24T06:43:29.441Z,3.90
2017-11-24T06:48:32.060Z,3.90
2017-11-24T06:53:34.632Z,3.90
2017-11-24T06:58:37.280Z,3.90
2017-11-24T07:03:39.849Z,3.90
2017-11-24T07:08:42.425Z,3.90
2017-11-24T07:13:45.009Z,3.90
2017-11-24T07:18:47.595Z,3.90
2017-11-24T07:23:50.178Z,3.90
2017-11-24T07:28:52.806Z,3.90
2017-11-24T07:33:55.358Z,3.90
2017-11-24T07:38:57.925Z,3.90
2017-11-24T07:44:00.523Z,4.00
2017-11-24T07:49:03.104Z,4.00
2017-11-24T07:54:05.662Z,4.00
2017-11-24T07:59:08.233Z,4.00
2017-11-24T08:04:10.841Z,4.10
2017-11-24T08:09:13.413Z,4.20
2017-11-24T08:14:15.978Z,4.40
2017-11-24T08:19:18.541Z,4.60
2017-11-24T08:24:21.097Z,4.80
2017-11-24T08:29:23.652Z,5.00
2017-11-24T08:34:26.222Z,5.10
2017-11-24T08:39:29.383Z,5.30
2017-11-24T08:44:31.946Z,5.40
2017-11-24T08:49:40.140Z,5.40
2017-11-24T08:54:42.712Z,5.50
2017-11-24T08:59:45.253Z,5.60
2017-11-24T09:04:47.818Z,5.60
2017-11-24T09:09:50.374Z,5.70
2017-11-24T09:14:52.954Z,5.80
2017-11-24T09:19:55.527Z,5.80
2017-11-24T09:24:58.104Z,6.00
2017-11-24T09:30:00.657Z,6.10
2017-11-24T09:35:03.239Z,6.20
2017-11-24T09:40:05.796Z,6.30
2017-11-24T09:45:08.386Z,6.40
2017-11-24T09:50:10.978Z,6.60
2017-11-24T09:55:13.558Z,6.70
2017-11-24T10:00:16.137Z,6.90
2017-11-24T10:05:18.715Z,7.20
2017-11-24T10:10:22.073Z,7.70
2017-11-24T10:15:24.638Z,7.80
2017-11-24T10:20:27.215Z,8.00
2017-11-24T10:25:29.777Z,8.20
2017-11-24T10:30:32.355Z,8.50
2017-11-24T10:35:34.932Z,8.70
2017-11-24T10:40:37.504Z,8.90
2017-11-24T10:45:40.089Z,9.00
2017-11-24T10:55:53.824Z,9.30
2017-11-24T11:00:56.369Z,9.50
2017-11-24T11:05:58.942Z,9.50
2017-11-24T11:11:01.491Z,9.60
2017-11-24T11:16:04.044Z,9.70
2017-11-24T11:21:06.588Z,9.70
2017-11-24T11:26:09.146Z,9.90
2017-11-24T11:31:11.706Z,10.10
2017-11-24T11:36:15.025Z,10.40
2017-11-24T11:41:17.587Z,10.40
2017-11-24T11:46:20.152Z,10.60
2017-11-24T11:51:22.736Z,10.80
2017-11-24T11:56:25.304Z,11.00
2017-11-24T12:01:28.614Z,11.30
2017-11-24T12:06:31.181Z,11.30
2017-11-24T12:11:33.731Z,11.40
2017-11-24T12:16:36.291Z,11.40
2017-11-24T12:21:38.849Z,11.40
2017-11-24T12:26:41.420Z,11.40
2017-11-24T12:31:44.740Z,11.60
2017-11-24T12:36:47.289Z,11.60
2017-11-24T12:41:49.840Z,11.70
2017-11-24T12:46:53.162Z,11.80
2017-11-24T12:51:55.724Z,11.80
2017-11-24T12:56:58.293Z,11.90
2017-11-24T13:02:00.856Z,11.90
2017-11-24T13:07:03.404Z,12.00
2017-11-24T13:12:06.056Z,12.00
2017-11-24T13:17:08.613Z,12.00
2017-11-24T13:22:11.215Z,12.00
2017-11-24T13:27:13.776Z,12.00
2017-11-24T13:32:16.431Z,11.90
2017-11-24T13:37:18.996Z,11.90
2017-11-24T13:59:40.253Z,11.60
2017-11-24T14:04:43.146Z,11.60
2017-11-24T14:09:52.744Z,11.50
2017-11-24T14:14:55.678Z,11.40
2017-11-24T14:19:59.044Z,11.40
2017-11-24T14:25:01.752Z,11.30
2017-11-24T14:30:04.472Z,11.20
2017-11-24T14:35:07.857Z,11.20
2017-11-24T14:40:10.811Z,11.10
2017-11-24T14:45:13.729Z,11.00
2017-11-24T14:50:16.411Z,11.00
2017-11-24T14:55:19.091Z,10.90
2017-11-24T15:00:21.766Z,10.80
2017-11-24T15:05:24.521Z,10.70
2017-11-24T15:10:27.214Z,10.70
2017-11-24T15:15:31.282Z,10.60
2017-11-24T15:20:34.121Z,10.50
2017-11-24T15:25:36.790Z,10.40
2017-11-24T15:30:39.734Z,10.30
2017-11-24T15:35:42.448Z,10.20
2017-11-24T15:40:45.087Z,10.10
2017-11-24T15:45:47.657Z,10.10
2017-11-24T15:50:50.268Z,10.00
2017-11-24T15:55:53.098Z,9.90
2017-11-24T16:00:55.682Z,9.80
2017-11-24T16:05:59.119Z,9.70
2017-11-24T16:11:01.692Z,9.70
2017-11-24T16:16:04.339Z,9.60
2017-11-24T16:21:09.688Z,9.60
2017-11-24T16:26:12.273Z,9.50
2017-11-24T16:31:14.883Z,9.40
2017-11-24T16:36:17.487Z,9.40
2017-11-24T16:41:20.068Z,9.40
2017-11-24T16:46:22.722Z,9.30
2017-11-24T16:51:25.341Z,9.30
2017-11-24T16:56:27.979Z,9.20
2017-11-24T17:01:30.577Z,9.20
2017-11-24T17:06:33.157Z,9.10
2017-11-24T17:11:35.798Z,9.00
2017-11-24T17:16:38.381Z,9.00
2017-11-24T17:21:40.950Z,9.00
2017-11-24T17:26:43.535Z,8.90
2017-11-24T17:31:46.120Z,8.90
2017-11-24T17:36:48.736Z,8.80
2017-11-24T17:41:51.373Z,8.80
2017-11-24T17:46:54.053Z,8.70
2017-11-24T17:51:56.639Z,8.70
2017-11-24T17:56:59.191Z,8.60
2017-11-24T18:02:01.778Z,8.60
2017-11-24T18:07:04.365Z,8.60
2017-11-24T18:12:10.527Z,8.50
2017-11-24T18:17:13.277Z,8.50
2017-11-24T18:22:15.823Z,8.40
2017-11-24T18:27:18.380Z,8.40
2017-11-24T18:32:21.696Z,8.30
2017-11-24T18:37:25.008Z,8.30
2017-11-24T18:42:28.320Z,8.20
2017-11-24T18:47:30.907Z,8.20
2017-11-24T18:52:33.448Z,8.20
2017-11-24T18:57:36.001Z,8.10
2017-11-24T19:02:38.556Z,8.10
2017-11-24T19:07:41.137Z,8.10
2017-11-24T19:12:43.719Z,8.10
2017-11-24T19:17:46.333Z,8.00
2017-11-24T19:22:48.896Z,8.00
2017-11-24T19:27:51.443Z,8.00
2017-11-24T19:32:53.992Z,8.00
2017-11-24T19:37:56.536Z,7.90
2017-11-24T19:42:59.112Z,7.90
2017-11-24T19:48:02.440Z,7.90
2017-11-24T19:53:04.984Z,7.90
2017-11-24T19:58:07.544Z,7.90
2017-11-24T20:03:10.127Z,7.80
2017-11-24T20:08:13.448Z,7.80
2017-11-24T20:13:16.249Z,7.80
2017-11-24T20:18:19.605Z,7.80
2017-11-24T20:23:22.156Z,7.70
2017-11-24T20:28:24.704Z,7.70
2017-11-24T20:33:27.278Z,7.70
2017-11-24T20:38:29.823Z,7.70
2017-11-24T20:43:32.921Z,7.70
2017-11-24T20:48:35.521Z,7.70
2017-11-24T20:53:38.092Z,7.60
2017-11-24T20:58:40.626Z,7.70
2017-11-24T21:03:43.197Z,7.60
2017-11-24T21:08:45.747Z,7.60
2017-11-24T21:13:49.077Z,7.60
2017-11-24T21:18:52.393Z,7.60
2017-11-24T21:23:55.739Z,7.60
2017-11-24T21:28:58.303Z,7.60
2017-11-24T21:34:00.849Z,7.60
2017-11-24T21:39:03.392Z,7.50
2017-11-24T21:44:05.938Z,7.50
2017-11-24T21:49:08.482Z,7.50
2017-11-24T21:54:11.023Z,7.50
2017-11-24T21:59:13.556Z,7.50
2017-11-24T22:04:16.096Z,7.40
2017-11-24T22:09:19.412Z,7.40
2017-11-24T22:14:22.729Z,7.40
2017-11-24T22:19:25.361Z,7.40
2017-11-24T22:24:27.912Z,7.40
2017-11-24T22:29:31.209Z,7.30
2017-11-24T22:34:33.755Z,7.30
2017-11-24T22:39:36.306Z,7.30
2017-11-24T22:44:38.866Z,7.30
2017-11-24T22:49:41.404Z,7.30
2017-11-24T22:54:43.996Z,7.30
2017-11-24T22:59:46.529Z,7.20
2017-11-24T23:04:49.849Z,7.20
2017-11-24T23:09:53.157Z,7.20
2017-11-24T23:14:55.696Z,7.20
2017-11-24T23:19:58.233Z,7.20
2017-11-24T23:25:00.781Z,7.20
2017-11-24T23:30:03.328Z,7.10
2017-11-24T23:35:05.878Z,7.10
2017-11-24T23:40:08.438Z,7.10
2017-11-24T23:45:10.983Z,7.10
2017-11-24T23:50:13.519Z,7.10
2017-11-24T23:55:16.054Z,7.00
